createdAt,value
2018-02-05T20:26:59.836Z,1017.45
2018-02-05T20:27:59.866Z,1017.47
2018-02-05T20:28:59.899Z,1017.44
2018-02-05T20:29:59.936Z,1017.41
2018-02-05T20:30:59.971Z,1017.42
2018-02-05T20:32:00.022Z,1017.42
2018-02-05T20:33:00.034Z,1017.43
2018-02-05T20:34:00.078Z,1017.42
2018-02-05T20:35:00.109Z,1017.40
2018-02-05T20:36:00.148Z,1017.37
2018-02-05T20:37:00.181Z,1017.36
2018-02-05T20:38:00.219Z,1017.41
2018-02-05T20:39:00.253Z,1017.39
2018-02-05T20:40:00.290Z,1017.36
2018-02-05T20:41:00.323Z,1017.39
2018-02-05T20:42:00.356Z,1017.38
2018-02-05T20:43:00.474Z,1017.37
2018-02-05T21:00:29.730Z,1017.33
2018-02-05T21:04:24.708Z,1017.30
2018-02-05T21:05:41.385Z,1017.25
2018-02-05T21:06:41.371Z,1017.25
2018-02-05T21:08:34.600Z,1017.21
2018-02-05T21:09:34.623Z,1017.19
2018-02-05T21:10:34.655Z,1017.19
2018-02-05T21:11:34.728Z,1017.18
2018-02-05T21:12:34.721Z,1017.20
2018-02-05T21:13:34.756Z,1017.16
2018-02-05T21:14:34.787Z,1017.17
2018-02-05T21:15:34.823Z,1017.17
2018-02-05T21:16:34.856Z,1017.21
2018-02-05T21:17:34.894Z,1017.16
2018-02-05T21:18:34.925Z,1017.22
2018-02-05T21:19:34.955Z,1017.20
2018-02-05T21:20:34.992Z,1017.22
2018-02-05T21:21:35.023Z,1017.19
2018-02-05T21:22:35.055Z,1017.23
2018-02-05T21:23:35.087Z,1017.19
2018-02-05T21:24:35.126Z,1017.20
2018-02-05T21:25:35.153Z,1017.18
2018-02-05T21:26:35.189Z,1017.19
2018-02-05T21:27:35.218Z,1017.16
2018-02-05T21:28:35.259Z,1017.14
2018-02-05T21:29:35.291Z,1017.16
2018-02-05T21:30:35.322Z,1017.12
2018-02-05T21:31:35.362Z,1017.10
2018-02-05T21:32:35.389Z,1017.11
2018-02-05T21:33:35.449Z,1017.11
2018-02-05T21:34:35.458Z,1017.12
2018-02-05T21:35:35.487Z,1017.11
2018-02-05T21:36:35.532Z,1017.12
2018-02-05T21:37:35.571Z,1017.11
2018-02-05T21:38:35.590Z,1017.10
2018-02-05T21:39:35.633Z,1017.10
2018-02-05T21:40:35.670Z,1017.06
2018-02-05T21:41:35.699Z,1017.07
